Almaty, Kazakhstan
Current Conditions -  °F | °C
As of 2:30 AM on Friday 30 Jan 2015 (Local Time) from UAAA Reporting Station
Moderate Fog Moderate Fog  
Wind Chill: -18°   Ceiling: 10000
Heat Index: -18°   Visibility: 0.25mi
Dew Point: -20°   Wind: 2mph
Humidity: 85%   Direction: NA
Pressure: 30.18"   Gusts: NA
Location:  43.32°N, 76.92°E
Report Text: UAAA 292030Z VRB01MPS 0400 R05L/1400U R05R/1100N FZFG FU SCT008BKN100 M18/M20 Q1022 R05L/3///60 R05R/91//60 NOSIG
Loading
Personal Weather Stations






























Interactive Weather Map New forecast layout! Learn more

10-Day Weather Forecast

Advertisements
Track Severe Weather on mobile